This is the latest recevied weather packets stored in our database for station/object OE6ACM-14. If no packets are shown the sender has not sent any weather packets the latest 10 day(s).
| Time | Temp. | Humidity | Pressure | Rain* | Wind** | Luminosity | Snow |
|---|---|---|---|---|---|---|---|
| 1787827940 | 31.11° C | 37% | 928.6 hPa | - | - | - | - |
| 1787827640 | 30.56° C | 37% | 928.5 hPa | - | - | - | - |
| 1787827340 | 31.11° C | 37% | 928.5 hPa | - | - | - | - |
| 1787827040 | 31.11° C | 37% | 928.6 hPa | - | - | - | - |
| 1787826740 | 31.67° C | 35% | 928.6 hPa | - | - | - | - |
| 1787826445 | 31.67° C | 39% | 928.7 hPa | - | - | - | - |
| 1787826140 | 31.67° C | 38% | 928.6 hPa | - | - | - | - |
| 1787825840 | 31.11° C | 39% | 928.6 hPa | - | - | - | - |
| 1787825540 | 30.56° C | 38% | 928.6 hPa | - | - | - | - |
| 1787825240 | 30.56° C | 40% | 928.7 hPa | - | - | - | - |
| 1787824940 | 30.56° C | 40% | 928.8 hPa | - | - | - | - |
| 1787824640 | 30.56° C | 40% | 928.9 hPa | - | - | - | - |
| 1787824340 | 30.56° C | 40% | 928.9 hPa | - | - | - | - |
| 1787824040 | 30.56° C | 39% | 929 hPa | - | - | - | - |
| 1787823740 | 31.11° C | 37% | 929 hPa | - | - | - | - |
| 1787823440 | 31.67° C | 36% | 929.1 hPa | - | - | - | - |
| 1787823140 | 34.44° C | 34% | 929.1 hPa | - | - | - | - |
| 1787822840 | 36.11° C | 30% | 929.1 hPa | - | - | - | - |
| 1787822540 | 37.78° C | 27% | 929 hPa | - | - | - | - |
| 1787822240 | 38.89° C | 26% | 929.1 hPa | - | - | - | - |
| 1787821940 | 39.44° C | 26% | 929 hPa | - | - | - | - |
| 1787821065 | 41.11° C | 24% | 929 hPa | - | - | - | - |
| 1787820765 | 41.11° C | 24% | 929.1 hPa | - | - | - | - |
| 1787820465 | 41.67° C | 24% | 929.1 hPa | - | - | - | - |
| 1787820165 | 40.56° C | 25% | 929.1 hPa | - | - | - | - |
* Rain since midnight (hover to see other rain measurements)
** Current wind speed in m/s (hover to see current wind gust speed)